createdAt,value
2022-09-02T03:46:15.879Z,100456.94
2022-09-02T03:49:20.591Z,100456.94
2022-09-02T03:52:25.490Z,100451.72
2022-09-02T03:55:28.768Z,100448.97
2022-09-02T03:58:31.683Z,100441.78
2022-09-02T04:01:36.790Z,100446.84
2022-09-02T04:04:39.783Z,100441.66
2022-09-02T04:07:42.877Z,100450.22
2022-09-02T04:10:50.161Z,100447.97
2022-09-02T04:13:53.924Z,100446.78
2022-09-02T04:16:56.928Z,100448.34
2022-09-02T04:19:59.572Z,100444.50
2022-09-02T04:23:03.150Z,100447.78
2022-09-02T04:26:07.965Z,100451.19
2022-09-02T04:29:11.148Z,100458.38
2022-09-02T04:32:15.968Z,100454.41
2022-09-02T04:35:19.298Z,100448.56
2022-09-02T04:38:22.453Z,100451.00
2022-09-02T04:41:30.200Z,100454.03
2022-09-02T04:44:33.744Z,100451.19
2022-09-02T04:47:36.643Z,100459.44
2022-09-02T04:50:41.025Z,100459.81
2022-09-02T04:53:45.805Z,100460.81
2022-09-02T04:56:49.480Z,100455.06
2022-09-02T04:59:53.733Z,100462.16
2022-09-02T05:02:56.296Z,100456.53
2022-09-02T05:06:00.888Z,100460.25
2022-09-02T05:09:04.526Z,100471.09
2022-09-02T05:12:08.807Z,100468.00
2022-09-02T05:15:12.893Z,100469.78
2022-09-02T05:18:16.242Z,100467.84
2022-09-02T05:21:20.915Z,100465.22
2022-09-02T05:24:26.679Z,100470.41
2022-09-02T05:27:29.752Z,100465.84
2022-09-02T05:30:32.857Z,100469.59
2022-09-02T05:33:40.800Z,100471.06
2022-09-02T05:36:44.922Z,100472.50
2022-09-02T05:39:47.427Z,100473.00
2022-09-02T05:42:50.147Z,100473.63
2022-09-02T05:45:52.747Z,100476.97
2022-09-02T05:49:09.208Z,100462.56
2022-09-02T05:52:13.319Z,100464.72
2022-09-02T05:55:16.659Z,100463.63
2022-09-02T05:58:19.552Z,100466.56
2022-09-02T06:01:23.159Z,100465.22
2022-09-02T06:04:26.470Z,100466.44
2022-09-02T06:07:29.745Z,100464.91
2022-09-02T06:10:33.908Z,100480.44
2022-09-02T06:13:39.111Z,100480.06
2022-09-02T06:16:43.404Z,100468.88
2022-09-02T06:19:47.292Z,100472.25
2022-09-02T06:22:50.827Z,100476.50
2022-09-02T06:25:54.302Z,100478.06
2022-09-02T06:28:57.383Z,100481.22
2022-09-02T06:31:59.778Z,100482.66
2022-09-02T06:35:02.989Z,100480.72
2022-09-02T06:38:07.076Z,100482.66
2022-09-02T06:41:15.443Z,100486.47
2022-09-02T06:44:21.580Z,100489.97
2022-09-02T06:47:24.541Z,100490.12
2022-09-02T06:50:27.402Z,100482.38
2022-09-02T06:53:31.350Z,100485.50
2022-09-02T06:56:34.931Z,100490.47
2022-09-02T06:59:38.378Z,100481.41
2022-09-02T07:02:40.780Z,100481.41
2022-09-02T07:05:43.508Z,100484.53
2022-09-02T07:08:46.672Z,100476.91
2022-09-02T07:11:51.070Z,100481.63
2022-09-02T07:14:54.443Z,100480.22
2022-09-02T07:17:57.463Z,100472.38
2022-09-02T07:21:01.182Z,100479.09
2022-09-02T07:24:05.066Z,100480.13
2022-09-02T07:27:07.785Z,100480.06
2022-09-02T07:30:15.075Z,100482.81
2022-09-02T07:33:18.382Z,100479.50
2022-09-02T07:36:21.685Z,100480.59
2022-09-02T07:39:24.267Z,100479.41
2022-09-02T07:42:28.507Z,100482.91
2022-09-02T07:45:32.222Z,100481.09
2022-09-02T07:48:36.094Z,100486.38
2022-09-02T07:51:42.868Z,100481.37
2022-09-02T07:54:45.695Z,100480.16
2022-09-02T07:57:50.395Z,100481.91
2022-09-02T08:00:56.901Z,100477.44
2022-09-02T08:04:02.726Z,100476.16
2022-09-02T08:07:08.647Z,100489.16
2022-09-02T08:10:12.970Z,100472.75
2022-09-02T08:13:15.961Z,100474.56
2022-09-02T08:16:19.215Z,100478.28
2022-09-02T08:19:22.720Z,100478.81
2022-09-02T08:22:26.019Z,100476.53
2022-09-02T08:25:28.462Z,100480.38
2022-09-02T08:28:34.269Z,100477.75
2022-09-02T08:31:37.977Z,100471.72
2022-09-02T08:34:40.661Z,100478.34
2022-09-02T08:37:42.993Z,100469.59
2022-09-02T08:40:46.008Z,100471.53
2022-09-02T08:43:51.715Z,100464.44
2022-09-02T08:46:59.224Z,100460.41
2022-09-02T08:50:10.574Z,100459.41
2022-09-02T08:53:19.861Z,100462.38
2022-09-02T08:56:22.524Z,100457.19
2022-09-02T08:59:27.822Z,100472.53
2022-09-02T09:02:36.176Z,100468.72
2022-09-02T09:06:12.193Z,100470.87
2022-09-02T09:09:36.460Z,100467.50
2022-09-02T09:13:12.375Z,100469.50
2022-09-02T09:16:36.865Z,100463.31
2022-09-02T09:19:53.999Z,100462.06
2022-09-02T09:23:00.335Z,100460.37
2022-09-02T09:26:13.656Z,100454.72
2022-09-02T09:29:16.735Z,100456.41
2022-09-02T09:32:24.001Z,100460.78
2022-09-02T09:35:29.053Z,100458.25
2022-09-02T09:38:36.082Z,100452.50
2022-09-02T09:41:38.771Z,100451.38
2022-09-02T09:44:44.664Z,100449.66
2022-09-02T09:48:16.410Z,100449.59
2022-09-02T09:51:19.375Z,100449.19
2022-09-02T09:57:24.624Z,100444.56
2022-09-02T10:00:34.418Z,100436.56
2022-09-02T10:03:43.075Z,100435.38
2022-09-02T10:06:48.372Z,100425.97
2022-09-02T10:10:08.690Z,100436.31
2022-09-02T10:13:23.640Z,100437.06
2022-09-02T10:16:51.803Z,100450.25
2022-09-02T10:20:22.662Z,100442.91
2022-09-02T10:23:41.081Z,100441.03
2022-09-02T10:26:52.410Z,100436.38
2022-09-02T10:30:03.931Z,100431.41
2022-09-02T10:33:24.526Z,100431.94
2022-09-02T10:37:00.719Z,100431.41
2022-09-02T10:40:12.249Z,100435.59
2022-09-02T10:43:46.780Z,100437.81
2022-09-02T10:46:49.238Z,100436.66
2022-09-02T10:50:07.950Z,100434.50
2022-09-02T10:53:33.644Z,100433.94
2022-09-02T10:56:45.414Z,100426.53
2022-09-02T11:00:13.155Z,100424.53
2022-09-02T11:03:27.324Z,100426.13
2022-09-02T11:06:51.792Z,100424.47
2022-09-02T11:10:15.925Z,100419.72
2022-09-02T11:13:24.701Z,100424.09
2022-09-02T11:16:41.976Z,100419.06
2022-09-02T11:20:27.559Z,100418.12
2022-09-02T11:23:57.011Z,100422.47
2022-09-02T11:27:32.236Z,100412.41
2022-09-02T11:30:49.484Z,100408.62
2022-09-02T11:34:18.977Z,100399.91
2022-09-02T11:37:48.094Z,100408.72
2022-09-02T11:44:41.572Z,100398.25
2022-09-02T11:47:57.486Z,100399.75
2022-09-02T11:51:31.875Z,100401.19
2022-09-02T11:54:45.548Z,100387.50
2022-09-02T11:57:57.563Z,100382.38
2022-09-02T12:01:06.378Z,100385.03
2022-09-02T12:04:55.734Z,100379.28
2022-09-02T12:07:50.089Z,100377.66
2022-09-02T12:10:52.976Z,100377.38
2022-09-02T12:13:55.893Z,100375.84
2022-09-02T12:17:09.261Z,100375.91
2022-09-02T12:20:45.991Z,100378.38
2022-09-02T12:23:53.994Z,100376.84
2022-09-02T12:26:56.209Z,100374.75
2022-09-02T12:29:59.297Z,100383.59
2022-09-02T12:33:14.412Z,100380.63
2022-09-02T12:36:39.956Z,100368.97
2022-09-02T12:39:42.835Z,100364.00
2022-09-02T12:42:48.388Z,100354.69
2022-09-02T12:45:54.004Z,100355.94
2022-09-02T12:49:12.053Z,100356.59
2022-09-02T12:52:36.370Z,100355.59
2022-09-02T12:55:40.551Z,100352.59
2022-09-02T12:58:49.013Z,100357.75
2022-09-02T13:02:29.577Z,100356.47
2022-09-02T13:05:51.472Z,100348.38
2022-09-02T13:12:37.980Z,100338.84
2022-09-02T13:15:56.087Z,100335.09
2022-09-02T13:19:01.636Z,100341.28
2022-09-02T13:22:13.425Z,100326.25
2022-09-02T13:25:34.697Z,100338.09
2022-09-02T13:29:04.715Z,100348.59
2022-09-02T13:32:10.348Z,100338.66
2022-09-02T13:35:24.667Z,100338.59
2022-09-02T13:38:29.682Z,100332.88
2022-09-02T13:41:33.141Z,100342.31
2022-09-02T13:44:35.625Z,100334.75
2022-09-02T13:47:42.489Z,100332.91
2022-09-02T13:50:50.023Z,100323.94
2022-09-02T13:54:21.453Z,100318.97
2022-09-02T13:57:22.229Z,100329.00
2022-09-02T14:00:38.650Z,100322.25
2022-09-02T14:03:48.619Z,100315.94
2022-09-02T14:06:53.800Z,100322.28
2022-09-02T14:09:58.962Z,100318.41
2022-09-02T14:13:04.246Z,100324.87
2022-09-02T14:16:27.069Z,100316.34
2022-09-02T14:19:29.495Z,100327.69
2022-09-02T14:22:32.263Z,100316.75
2022-09-02T14:25:48.354Z,100309.44
2022-09-02T14:28:52.226Z,100311.44
2022-09-02T14:32:15.787Z,100321.78
2022-09-02T14:35:18.270Z,100326.25
2022-09-02T14:38:26.134Z,100318.78
2022-09-02T14:41:36.031Z,100320.56
2022-09-02T14:44:40.637Z,100320.06
2022-09-02T14:47:43.669Z,100322.88
2022-09-02T14:50:46.300Z,100325.19
2022-09-02T14:53:48.974Z,100321.91
2022-09-02T14:56:53.502Z,100321.31
2022-09-02T14:59:57.997Z,100328.66
2022-09-02T15:03:00.466Z,100328.53
2022-09-02T15:06:04.598Z,100332.81
2022-09-02T15:09:07.054Z,100326.75
2022-09-02T15:12:11.963Z,100341.16
2022-09-02T15:15:14.628Z,100339.97
2022-09-02T15:18:17.272Z,100339.75
2022-09-02T15:21:21.029Z,100341.59
2022-09-02T15:24:23.681Z,100344.88
2022-09-02T15:27:26.221Z,100345.66
2022-09-02T15:30:29.094Z,100345.69
